PWSweather.com
Personal Weather Stations
Station Observations
PRATO
PratoIT 59100

PratoIT 59100

Lat: 43.8956799, Lon: 11.0845155

Elevation: 164

Station Type: Davis Vantage Vue

http://www.meteoprato.it

High Low Average
Temperature 65.7°F18.7°C 57.7°F14.3°C 60.8°F16.0°C
Dew Point 59.8°F15.4°C 50.0°F10.0°C 56.5°F13.6°C
Winds 9.1 mph 14.6 kmh Calm Calm 2.0 mph SSW3.2 kmh SSW
Wind Gusts 18.0 mph29.0 kmh -- 7.0 mph11.3 kmh
Humidity 92% 74% 86%
Pressure 29.59 in1002.0 mb 29.44 in997.0 mb -
Precipitation 0.25 in6.4 mm - -
Hour Temp Dew Point Humidity Winds Wind Gusts Pressure Precip Precip Rate Daily Precip Total
12:00 AM 61.3°F16.3°C 57.1°F13.9°C 86% 4.0 mph SW6.4 kmh SW 10.0 mph16.1 kmh 29.57 in1001.4 mb 0.00 in0.0 mm 0.00 in0.0 mm 0.00 in0.0 mm
12:05 AM 61.3°F16.3°C 57.1°F13.9°C 86% 3.7 mph SW6.0 kmh SW 7.0 mph11.3 kmh 29.58 in1001.7 mb 0.00 in0.0 mm 0.00 in0.0 mm 0.00 in0.0 mm
12:10 AM 61.2°F16.2°C 57.3°F14.1°C 87% 3.2 mph SW5.1 kmh SW 6.0 mph9.7 kmh 29.58 in1001.7 mb 0.00 in0.0 mm 0.00 in0.0 mm 0.00 in0.0 mm
12:15 AM 61.2°F16.2°C 57.3°F14.1°C 87% 3.0 mph SW4.8 kmh SW 6.0 mph9.7 kmh 29.58 in1001.7 mb 0.00 in0.0 mm 0.00 in0.0 mm 0.00 in0.0 mm
12:20 AM 61.3°F16.3°C 57.4°F14.1°C 87% 3.2 mph SW5.1 kmh SW 10.0 mph16.1 kmh 29.58 in1001.7 mb 0.00 in0.0 mm 0.00 in0.0 mm 0.00 in0.0 mm
12:25 AM 61.5°F16.4°C 57.6°F14.2°C 87% 3.9 mph SW6.3 kmh SW 10.0 mph16.1 kmh 29.58 in1001.7 mb 0.00 in0.0 mm 0.00 in0.0 mm 0.00 in0.0 mm
12:30 AM 61.5°F16.4°C 57.6°F14.2°C 87% 4.6 mph SW7.4 kmh SW 10.0 mph16.1 kmh 29.57 in1001.4 mb 0.00 in0.0 mm 0.00 in0.0 mm 0.00 in0.0 mm
12:35 AM 61.4°F16.3°C 57.5°F14.2°C 87% 4.4 mph SW7.1 kmh SW 7.0 mph11.3 kmh 29.57 in1001.4 mb 0.00 in0.0 mm 0.00 in0.0 mm 0.00 in0.0 mm
12:40 AM 61.4°F16.3°C 57.8°F14.3°C 88% 4.0 mph SW6.4 kmh SW 7.0 mph11.3 kmh 29.57 in1001.4 mb 0.00 in0.0 mm 0.00 in0.0 mm 0.00 in0.0 mm
12:45 AM 61.5°F16.4°C 57.9°F14.4°C 88% 4.0 mph SW6.4 kmh SW 8.0 mph12.9 kmh 29.57 in1001.4 mb 0.00 in0.0 mm 0.00 in0.0 mm 0.00 in0.0 mm
12:50 AM 61.6°F16.4°C 58.0°F14.4°C 88% 4.0 mph SW6.4 kmh SW 8.0 mph12.9 kmh 29.57 in1001.4 mb 0.00 in0.0 mm 0.00 in0.0 mm 0.00 in0.0 mm
12:55 AM 61.6°F16.4°C 58.0°F14.4°C 88% 4.0 mph SW6.4 kmh SW 6.0 mph9.7 kmh 29.56 in1001.0 mb 0.00 in0.0 mm 0.00 in0.0 mm 0.00 in0.0 mm
01:00 AM 61.7°F16.5°C 58.1°F14.5°C 88% 3.5 mph SW5.6 kmh SW 6.0 mph9.7 kmh 29.56 in1001.0 mb 0.00 in0.0 mm 0.00 in0.0 mm 0.00 in0.0 mm
01:05 AM 61.8°F16.6°C 58.2°F14.6°C 88% 3.1 mph SW5.0 kmh SW 11.0 mph17.7 kmh 29.56 in1001.0 mb 0.00 in0.0 mm 0.00 in0.0 mm 0.00 in0.0 mm
01:10 AM 62.0°F16.7°C 58.4°F14.7°C 88% 3.6 mph SW5.8 kmh SW 11.0 mph17.7 kmh 29.55 in1000.7 mb 0.00 in0.0 mm 0.00 in0.0 mm 0.00 in0.0 mm
01:15 AM 61.9°F16.6°C 58.0°F14.4°C 87% 3.9 mph SW6.3 kmh SW 7.0 mph11.3 kmh 29.55 in1000.7 mb 0.00 in0.0 mm 0.00 in0.0 mm 0.00 in0.0 mm
01:20 AM 61.9°F16.6°C 58.0°F14.4°C 87% 3.6 mph SW5.8 kmh SW 11.0 mph17.7 kmh 29.55 in1000.7 mb 0.00 in0.0 mm 0.00 in0.0 mm 0.00 in0.0 mm
01:25 AM 61.9°F16.6°C 58.0°F14.4°C 87% 3.9 mph SW6.3 kmh SW 11.0 mph17.7 kmh 29.56 in1001.0 mb 0.00 in0.0 mm 0.00 in0.0 mm 0.00 in0.0 mm
01:30 AM 61.9°F16.6°C 58.0°F14.4°C 87% 4.7 mph SW7.6 kmh SW 12.0 mph19.3 kmh 29.56 in1001.0 mb 0.00 in0.0 mm 0.00 in0.0 mm 0.00 in0.0 mm
01:35 AM 62.1°F16.7°C 58.2°F14.6°C 87% 5.3 mph SW8.5 kmh SW 12.0 mph19.3 kmh 29.55 in1000.7 mb 0.00 in0.0 mm 0.00 in0.0 mm 0.00 in0.0 mm
01:40 AM 62.1°F16.7°C 58.2°F14.6°C 87% 5.7 mph SW9.2 kmh SW 11.0 mph17.7 kmh 29.56 in1001.0 mb 0.00 in0.0 mm 0.00 in0.0 mm 0.00 in0.0 mm
01:45 AM 62.2°F16.8°C 58.3°F14.6°C 87% 5.4 mph SW8.7 kmh SW 9.0 mph14.5 kmh 29.56 in1001.0 mb 0.00 in0.0 mm 0.00 in0.0 mm 0.00 in0.0 mm
01:50 AM 62.2°F16.8°C 58.0°F14.4°C 86% 5.0 mph SW8.0 kmh SW 9.0 mph14.5 kmh 29.56 in1001.0 mb 0.00 in0.0 mm 0.00 in0.0 mm 0.00 in0.0 mm
01:55 AM 62.2°F16.8°C 58.0°F14.4°C 86% 4.5 mph SW7.2 kmh SW 8.0 mph12.9 kmh 29.56 in1001.0 mb 0.00 in0.0 mm 0.00 in0.0 mm 0.00 in0.0 mm
02:00 AM 62.1°F16.7°C 58.2°F14.6°C 87% 3.5 mph SSW5.6 kmh SSW 8.0 mph12.9 kmh 29.56 in1001.0 mb 0.00 in0.0 mm 0.00 in0.0 mm 0.00 in0.0 mm
02:05 AM 62.0°F16.7°C 58.1°F14.5°C 87% 3.0 mph SW4.8 kmh SW 8.0 mph12.9 kmh 29.55 in1000.7 mb 0.00 in0.0 mm 0.00 in0.0 mm 0.00 in0.0 mm
02:10 AM 61.9°F16.6°C 58.0°F14.4°C 87% 3.3 mph SW5.3 kmh SW 9.0 mph14.5 kmh 29.55 in1000.7 mb 0.00 in0.0 mm 0.00 in0.0 mm 0.00 in0.0 mm
02:15 AM 61.9°F16.6°C 58.0°F14.4°C 87% 3.6 mph SW5.8 kmh SW 9.0 mph14.5 kmh 29.55 in1000.7 mb 0.00 in0.0 mm 0.00 in0.0 mm 0.00 in0.0 mm
02:20 AM 61.9°F16.6°C 58.0°F14.4°C 87% 3.8 mph SSW6.1 kmh SSW 8.0 mph12.9 kmh 29.54 in1000.3 mb 0.00 in0.0 mm 0.00 in0.0 mm 0.00 in0.0 mm
02:25 AM 61.9°F16.6°C 58.0°F14.4°C 87% 4.0 mph SSW6.4 kmh SSW 8.0 mph12.9 kmh 29.54 in1000.3 mb 0.00 in0.0 mm 0.00 in0.0 mm 0.00 in0.0 mm
02:30 AM 62.0°F16.7°C 58.1°F14.5°C 87% 4.0 mph SSW6.4 kmh SSW 12.0 mph19.3 kmh 29.54 in1000.3 mb 0.00 in0.0 mm 0.00 in0.0 mm 0.00 in0.0 mm
02:35 AM 62.0°F16.7°C 58.1°F14.5°C 87% 4.0 mph SSW6.4 kmh SSW 12.0 mph19.3 kmh 29.53 in1000.0 mb 0.00 in0.0 mm 0.00 in0.0 mm 0.00 in0.0 mm
02:40 AM 62.0°F16.7°C 58.1°F14.5°C 87% 4.0 mph SSW6.4 kmh SSW 7.0 mph11.3 kmh 29.53 in1000.0 mb 0.00 in0.0 mm 0.00 in0.0 mm 0.00 in0.0 mm
02:45 AM 62.1°F16.7°C 58.2°F14.6°C 87% 3.8 mph SSW6.1 kmh SSW 8.0 mph12.9 kmh 29.53 in1000.0 mb 0.00 in0.0 mm 0.00 in0.0 mm 0.00 in0.0 mm
02:50 AM 62.1°F16.7°C 58.2°F14.6°C 87% 3.3 mph SW5.3 kmh SW 8.0 mph12.9 kmh 29.53 in1000.0 mb 0.00 in0.0 mm 0.00 in0.0 mm 0.00 in0.0 mm
02:55 AM 62.1°F16.7°C 58.2°F14.6°C 87% 3.1 mph SW5.0 kmh SW 7.0 mph11.3 kmh 29.53 in1000.0 mb 0.00 in0.0 mm 0.00 in0.0 mm 0.00 in0.0 mm
03:00 AM 62.0°F16.7°C 58.1°F14.5°C 87% 2.8 mph SW4.5 kmh SW 6.0 mph9.7 kmh 29.53 in1000.0 mb 0.00 in0.0 mm 0.00 in0.0 mm 0.00 in0.0 mm
03:05 AM 62.0°F16.7°C 58.1°F14.5°C 87% 2.2 mph SW3.5 kmh SW 7.0 mph11.3 kmh 29.53 in1000.0 mb 0.00 in0.0 mm 0.00 in0.0 mm 0.00 in0.0 mm
03:10 AM 62.0°F16.7°C 58.1°F14.5°C 87% 2.0 mph SW3.2 kmh SW 7.0 mph11.3 kmh 29.53 in1000.0 mb 0.00 in0.0 mm 0.00 in0.0 mm 0.00 in0.0 mm
03:15 AM 61.9°F16.6°C 58.0°F14.4°C 87% 1.8 mph SW2.9 kmh SW 6.0 mph9.7 kmh 29.53 in1000.0 mb 0.00 in0.0 mm 0.00 in0.0 mm 0.00 in0.0 mm
03:20 AM 61.9°F16.6°C 58.0°F14.4°C 87% 1.7 mph SW2.7 kmh SW 6.0 mph9.7 kmh 29.52 in999.7 mb 0.00 in0.0 mm 0.00 in0.0 mm 0.00 in0.0 mm
03:25 AM 61.8°F16.6°C 58.2°F14.6°C 88% 1.9 mph WSW3.1 kmh WSW 6.0 mph9.7 kmh 29.52 in999.7 mb 0.00 in0.0 mm 0.00 in0.0 mm 0.00 in0.0 mm
03:30 AM 61.8°F16.6°C 58.2°F14.6°C 88% 1.6 mph WSW2.6 kmh WSW 3.0 mph4.8 kmh 29.52 in999.7 mb 0.00 in0.0 mm 0.00 in0.0 mm 0.00 in0.0 mm
03:35 AM 61.8°F16.6°C 58.2°F14.6°C 88% 0.6 mph SW1.0 kmh SW 5.0 mph8.0 kmh 29.52 in999.7 mb 0.00 in0.0 mm 0.00 in0.0 mm 0.00 in0.0 mm
03:40 AM 61.8°F16.6°C 58.2°F14.6°C 88% 0.4 mph SW0.6 kmh SW 5.0 mph8.0 kmh 29.52 in999.7 mb 0.00 in0.0 mm 0.00 in0.0 mm 0.00 in0.0 mm
03:45 AM 61.8°F16.6°C 58.2°F14.6°C 88% 0.9 mph SW1.4 kmh SW 5.0 mph8.0 kmh 29.52 in999.7 mb 0.00 in0.0 mm 0.00 in0.0 mm 0.00 in0.0 mm
03:50 AM 61.8°F16.6°C 58.2°F14.6°C 88% 1.0 mph WSW1.6 kmh WSW 5.0 mph8.0 kmh 29.51 in999.3 mb 0.00 in0.0 mm 0.00 in0.0 mm 0.00 in0.0 mm
03:55 AM 61.8°F16.6°C 58.5°F14.7°C 89% 1.0 mph SW1.6 kmh SW 5.0 mph8.0 kmh 29.52 in999.7 mb 0.00 in0.0 mm 0.00 in0.0 mm 0.00 in0.0 mm
04:00 AM 61.8°F16.6°C 58.5°F14.7°C 89% 1.1 mph SW1.8 kmh SW 8.0 mph12.9 kmh 29.51 in999.3 mb 0.00 in0.0 mm 0.00 in0.0 mm 0.00 in0.0 mm
04:05 AM 61.8°F16.6°C 58.5°F14.7°C 89% 1.8 mph SW2.9 kmh SW 8.0 mph12.9 kmh 29.51 in999.3 mb 0.00 in0.0 mm 0.00 in0.0 mm 0.00 in0.0 mm
04:10 AM 61.8°F16.6°C 58.5°F14.7°C 89% 2.5 mph SW4.0 kmh SW 6.0 mph9.7 kmh 29.51 in999.3 mb 0.00 in0.0 mm 0.00 in0.0 mm 0.00 in0.0 mm
04:15 AM 61.8°F16.6°C 58.5°F14.7°C 89% 2.3 mph SW3.7 kmh SW 7.0 mph11.3 kmh 29.51 in999.3 mb 0.00 in0.0 mm 0.00 in0.0 mm 0.00 in0.0 mm
04:20 AM 61.8°F16.6°C 58.5°F14.7°C 89% 2.5 mph SW4.0 kmh SW 8.0 mph12.9 kmh 29.52 in999.7 mb 0.01 in0.3 mm 0.12 in3.0 mm 0.01 in0.3 mm
04:25 AM 61.7°F16.5°C 58.7°F14.8°C 90% 3.5 mph SW5.6 kmh SW 8.0 mph12.9 kmh 29.52 in999.7 mb 0.03 in0.8 mm 0.24 in6.1 mm 0.03 in0.8 mm
04:30 AM 61.6°F16.4°C 58.6°F14.8°C 90% 3.4 mph SW5.5 kmh SW 8.0 mph12.9 kmh 29.52 in999.7 mb 0.04 in1.0 mm 0.12 in3.0 mm 0.04 in1.0 mm
04:35 AM 61.5°F16.4°C 58.5°F14.7°C 90% 2.4 mph SW3.9 kmh SW 7.0 mph11.3 kmh 29.52 in999.7 mb 0.04 in1.0 mm 0.00 in0.0 mm 0.04 in1.0 mm
04:40 AM 61.5°F16.4°C 58.5°F14.7°C 90% 1.8 mph SW2.9 kmh SW 4.0 mph6.4 kmh 29.51 in999.3 mb 0.04 in1.0 mm 0.00 in0.0 mm 0.04 in1.0 mm
04:45 AM 61.4°F16.3°C 58.7°F14.8°C 91% 1.3 mph SW2.1 kmh SW 3.0 mph4.8 kmh 29.51 in999.3 mb 0.04 in1.0 mm 0.00 in0.0 mm 0.04 in1.0 mm
04:50 AM 61.4°F16.3°C 58.7°F14.8°C 91% 0.5 mph ENE0.8 kmh ENE 5.0 mph8.0 kmh 29.51 in999.3 mb 0.04 in1.0 mm 0.00 in0.0 mm 0.04 in1.0 mm
04:55 AM 61.4°F16.3°C 58.7°F14.8°C 91% 0.2 mph NNE0.3 kmh NNE 5.0 mph8.0 kmh 29.51 in999.3 mb 0.04 in1.0 mm 0.00 in0.0 mm 0.04 in1.0 mm
05:00 AM 61.6°F16.4°C 58.9°F14.9°C 91% 0.7 mph NNE1.1 kmh NNE 5.0 mph8.0 kmh 29.51 in999.3 mb 0.04 in1.0 mm 0.00 in0.0 mm 0.04 in1.0 mm
05:05 AM 61.7°F16.5°C 58.7°F14.8°C 90% 1.0 mph NE1.6 kmh NE 5.0 mph8.0 kmh 29.51 in999.3 mb 0.04 in1.0 mm 0.00 in0.0 mm 0.04 in1.0 mm
05:10 AM 61.9°F16.6°C 58.9°F14.9°C 90% 1.0 mph NNE1.6 kmh NNE 5.0 mph8.0 kmh 29.50 in999.0 mb 0.04 in1.0 mm 0.00 in0.0 mm 0.04 in1.0 mm
05:15 AM 62.0°F16.7°C 59.0°F15.0°C 90% 1.0 mph NE1.6 kmh NE 8.0 mph12.9 kmh 29.51 in999.3 mb 0.04 in1.0 mm 0.00 in0.0 mm 0.04 in1.0 mm
05:20 AM 62.1°F16.7°C 58.8°F14.9°C 89% 1.0 mph NE1.6 kmh NE 8.0 mph12.9 kmh 29.50 in999.0 mb 0.03 in0.8 mm 0.00 in0.0 mm 0.04 in1.0 mm
05:25 AM 62.2°F16.8°C 58.9°F14.9°C 89% 1.0 mph NE1.6 kmh NE 6.0 mph9.7 kmh 29.50 in999.0 mb 0.01 in0.3 mm 0.00 in0.0 mm 0.04 in1.0 mm
05:30 AM 62.3°F16.8°C 59.0°F15.0°C 89% 1.0 mph NE1.6 kmh NE 6.0 mph9.7 kmh 29.50 in999.0 mb 0.00 in0.0 mm 0.00 in0.0 mm 0.04 in1.0 mm
05:35 AM 62.3°F16.8°C 58.7°F14.8°C 88% 0.8 mph SW1.3 kmh SW 4.0 mph6.4 kmh 29.50 in999.0 mb 0.00 in0.0 mm 0.00 in0.0 mm 0.04 in1.0 mm
05:40 AM 62.3°F16.8°C 58.7°F14.8°C 88% 0.3 mph SSW0.5 kmh SSW 7.0 mph11.3 kmh 29.50 in999.0 mb 0.00 in0.0 mm 0.00 in0.0 mm 0.04 in1.0 mm
05:45 AM 62.4°F16.9°C 58.8°F14.9°C 88% 0.5 mph SW0.8 kmh SW 7.0 mph11.3 kmh 29.50 in999.0 mb 0.00 in0.0 mm 0.00 in0.0 mm 0.04 in1.0 mm
05:50 AM 62.4°F16.9°C 58.8°F14.9°C 88% 1.0 mph WSW1.6 kmh WSW 5.0 mph8.0 kmh 29.50 in999.0 mb 0.00 in0.0 mm 0.00 in0.0 mm 0.04 in1.0 mm
05:55 AM 62.5°F16.9°C 58.9°F14.9°C 88% 1.0 mph SW1.6 kmh SW 5.0 mph8.0 kmh 29.50 in999.0 mb 0.00 in0.0 mm 0.00 in0.0 mm 0.04 in1.0 mm
06:00 AM 62.4°F16.9°C 58.5°F14.7°C 87% 1.0 mph SSW1.6 kmh SSW 8.0 mph12.9 kmh 29.50 in999.0 mb 0.00 in0.0 mm 0.00 in0.0 mm 0.04 in1.0 mm
06:05 AM 62.4°F16.9°C 58.5°F14.7°C 87% 1.2 mph SW1.9 kmh SW 15.0 mph24.1 kmh 29.50 in999.0 mb 0.00 in0.0 mm 0.00 in0.0 mm 0.04 in1.0 mm
06:10 AM 62.4°F16.9°C 58.5°F14.7°C 87% 2.1 mph SW3.4 kmh SW 15.0 mph24.1 kmh 29.49 in998.6 mb 0.00 in0.0 mm 0.00 in0.0 mm 0.04 in1.0 mm
06:15 AM 62.4°F16.9°C 58.5°F14.7°C 87% 2.9 mph SW4.7 kmh SW 11.0 mph17.7 kmh 29.49 in998.6 mb 0.00 in0.0 mm 0.00 in0.0 mm 0.04 in1.0 mm
06:20 AM 62.3°F16.8°C 58.4°F14.7°C 87% 2.2 mph SW3.5 kmh SW 4.0 mph6.4 kmh 29.49 in998.6 mb 0.00 in0.0 mm 0.00 in0.0 mm 0.04 in1.0 mm
06:25 AM 62.3°F16.8°C 58.4°F14.7°C 87% 1.2 mph SW1.9 kmh SW 4.0 mph6.4 kmh 29.49 in998.6 mb 0.00 in0.0 mm 0.00 in0.0 mm 0.04 in1.0 mm
06:30 AM 62.3°F16.8°C 58.4°F14.7°C 87% 1.0 mph SW1.6 kmh SW 5.0 mph8.0 kmh 29.49 in998.6 mb 0.00 in0.0 mm 0.00 in0.0 mm 0.04 in1.0 mm
06:35 AM 62.4°F16.9°C 58.5°F14.7°C 87% 1.1 mph SW1.8 kmh SW 5.0 mph8.0 kmh 29.49 in998.6 mb 0.00 in0.0 mm 0.00 in0.0 mm 0.04 in1.0 mm
06:40 AM 62.5°F16.9°C 58.6°F14.8°C 87% 1.3 mph SW2.1 kmh SW 7.0 mph11.3 kmh 29.49 in998.6 mb 0.00 in0.0 mm 0.00 in0.0 mm 0.04 in1.0 mm
06:45 AM 62.6°F17.0°C 58.4°F14.7°C 86% 1.6 mph WSW2.6 kmh WSW 7.0 mph11.3 kmh 29.48 in998.3 mb 0.00 in0.0 mm 0.00 in0.0 mm 0.04 in1.0 mm
06:50 AM 62.7°F17.1°C 58.5°F14.7°C 86% 1.7 mph SSW2.7 kmh SSW 7.0 mph11.3 kmh 29.48 in998.3 mb 0.00 in0.0 mm 0.00 in0.0 mm 0.04 in1.0 mm
06:55 AM 62.8°F17.1°C 58.5°F14.7°C 86% 1.4 mph SSW2.3 kmh SSW 7.0 mph11.3 kmh 29.48 in998.3 mb 0.00 in0.0 mm 0.00 in0.0 mm 0.04 in1.0 mm
07:00 AM 62.8°F17.1°C 58.5°F14.7°C 86% 1.1 mph SSW1.8 kmh SSW 7.0 mph11.3 kmh 29.48 in998.3 mb 0.00 in0.0 mm 0.00 in0.0 mm 0.04 in1.0 mm
07:05 AM 62.8°F17.1°C 58.2°F14.6°C 85% 1.0 mph SW1.6 kmh SW 6.0 mph9.7 kmh 29.48 in998.3 mb 0.00 in0.0 mm 0.00 in0.0 mm 0.04 in1.0 mm
07:10 AM 62.8°F17.1°C 58.2°F14.6°C 85% 1.0 mph WSW1.6 kmh WSW 6.0 mph9.7 kmh 29.48 in998.3 mb 0.00 in0.0 mm 0.00 in0.0 mm 0.04 in1.0 mm
07:15 AM 62.8°F17.1°C 58.2°F14.6°C 85% 1.0 mph WSW1.6 kmh WSW 7.0 mph11.3 kmh 29.48 in998.3 mb 0.00 in0.0 mm 0.00 in0.0 mm 0.04 in1.0 mm
07:20 AM 62.8°F17.1°C 58.2°F14.6°C 85% 1.0 mph SW1.6 kmh SW 7.0 mph11.3 kmh 29.47 in998.0 mb 0.00 in0.0 mm 0.00 in0.0 mm 0.04 in1.0 mm
07:25 AM 62.8°F17.1°C 58.2°F14.6°C 85% 0.9 mph SE1.4 kmh SE 3.0 mph4.8 kmh 29.47 in998.0 mb 0.00 in0.0 mm 0.00 in0.0 mm 0.04 in1.0 mm
07:30 AM 62.8°F17.1°C 58.2°F14.6°C 85% 0.4 mph SSW0.6 kmh SSW 3.0 mph4.8 kmh 29.47 in998.0 mb 0.00 in0.0 mm 0.00 in0.0 mm 0.04 in1.0 mm
07:35 AM 62.9°F17.2°C 58.0°F14.4°C 84% 0.1 mph SW0.2 kmh SW 6.0 mph9.7 kmh 29.47 in998.0 mb 0.00 in0.0 mm 0.00 in0.0 mm 0.04 in1.0 mm
07:40 AM 63.0°F17.2°C 58.1°F14.5°C 84% 0.5 mph NNE0.8 kmh NNE 6.0 mph9.7 kmh 29.47 in998.0 mb 0.00 in0.0 mm 0.00 in0.0 mm 0.04 in1.0 mm
07:45 AM 63.1°F17.3°C 58.2°F14.6°C 84% 0.9 mph NE1.4 kmh NE 6.0 mph9.7 kmh 29.47 in998.0 mb 0.00 in0.0 mm 0.00 in0.0 mm 0.04 in1.0 mm
07:50 AM 63.2°F17.3°C 57.9°F14.4°C 83% 1.0 mph NE1.6 kmh NE 6.0 mph9.7 kmh 29.46 in997.6 mb 0.00 in0.0 mm 0.00 in0.0 mm 0.04 in1.0 mm
07:55 AM 63.3°F17.4°C 58.0°F14.4°C 83% 1.0 mph NE1.6 kmh NE 5.0 mph8.0 kmh 29.47 in998.0 mb 0.00 in0.0 mm 0.00 in0.0 mm 0.04 in1.0 mm
08:00 AM 63.5°F17.5°C 58.2°F14.6°C 83% 1.0 mph NW1.6 kmh NW 5.0 mph8.0 kmh 29.47 in998.0 mb 0.00 in0.0 mm 0.00 in0.0 mm 0.04 in1.0 mm
08:05 AM 63.7°F17.6°C 58.1°F14.5°C 82% 1.0 mph SW1.6 kmh SW 6.0 mph9.7 kmh 29.47 in998.0 mb 0.00 in0.0 mm 0.00 in0.0 mm 0.04 in1.0 mm
08:10 AM 63.7°F17.6°C 58.4°F14.7°C 83% 1.5 mph SW2.4 kmh SW 6.0 mph9.7 kmh 29.47 in998.0 mb 0.00 in0.0 mm 0.00 in0.0 mm 0.04 in1.0 mm
08:15 AM 64.0°F17.8°C 58.7°F14.8°C 83% 1.8 mph SW2.9 kmh SW 9.0 mph14.5 kmh 29.47 in998.0 mb 0.00 in0.0 mm 0.00 in0.0 mm 0.04 in1.0 mm
08:20 AM 64.3°F17.9°C 59.0°F15.0°C 83% 1.3 mph SW2.1 kmh SW 9.0 mph14.5 kmh 29.47 in998.0 mb 0.00 in0.0 mm 0.00 in0.0 mm 0.04 in1.0 mm
08:25 AM 64.4°F18.0°C 58.8°F14.9°C 82% 0.8 mph SW1.3 kmh SW 5.0 mph8.0 kmh 29.46 in997.6 mb 0.00 in0.0 mm 0.00 in0.0 mm 0.04 in1.0 mm
08:30 AM 64.4°F18.0°C 58.8°F14.9°C 82% 0.4 mph S0.6 kmh S 7.0 mph11.3 kmh 29.46 in997.6 mb 0.00 in0.0 mm 0.00 in0.0 mm 0.04 in1.0 mm
08:35 AM 64.5°F18.1°C 58.9°F14.9°C 82% 0.7 mph SW1.1 kmh SW 9.0 mph14.5 kmh 29.47 in998.0 mb 0.00 in0.0 mm 0.00 in0.0 mm 0.04 in1.0 mm
08:40 AM 64.5°F18.1°C 58.5°F14.7°C 81% 1.6 mph SW2.6 kmh SW 9.0 mph14.5 kmh 29.47 in998.0 mb 0.00 in0.0 mm 0.00 in0.0 mm 0.04 in1.0 mm
08:45 AM 64.5°F18.1°C 58.5°F14.7°C 81% 2.0 mph SW3.2 kmh SW 5.0 mph8.0 kmh 29.47 in998.0 mb 0.00 in0.0 mm 0.00 in0.0 mm 0.04 in1.0 mm
08:50 AM 64.5°F18.1°C 58.5°F14.7°C 81% 1.6 mph SW2.6 kmh SW 4.0 mph6.4 kmh 29.47 in998.0 mb 0.00 in0.0 mm 0.00 in0.0 mm 0.04 in1.0 mm
08:55 AM 64.5°F18.1°C 58.5°F14.7°C 81% 1.0 mph SW1.6 kmh SW 3.0 mph4.8 kmh 29.47 in998.0 mb 0.00 in0.0 mm 0.00 in0.0 mm 0.04 in1.0 mm
09:00 AM 64.5°F18.1°C 58.5°F14.7°C 81% 0.4 mph SW0.6 kmh SW 3.0 mph4.8 kmh 29.47 in998.0 mb 0.00 in0.0 mm 0.00 in0.0 mm 0.04 in1.0 mm
09:05 AM 64.5°F18.1°C 58.9°F14.9°C 82% Calm Calm 2.0 mph3.2 kmh 29.46 in997.6 mb 0.00 in0.0 mm 0.00 in0.0 mm 0.04 in1.0 mm
09:10 AM 64.6°F18.1°C 59.0°F15.0°C 82% 0.1 mph SW0.2 kmh SW 6.0 mph9.7 kmh 29.46 in997.6 mb 0.00 in0.0 mm 0.00 in0.0 mm 0.04 in1.0 mm
09:15 AM 64.9°F18.3°C 58.9°F14.9°C 81% 0.8 mph SW1.3 kmh SW 8.0 mph12.9 kmh 29.46 in997.6 mb 0.00 in0.0 mm 0.00 in0.0 mm 0.04 in1.0 mm
09:20 AM 65.1°F18.4°C 59.1°F15.1°C 81% 1.7 mph SW2.7 kmh SW 8.0 mph12.9 kmh 29.46 in997.6 mb 0.00 in0.0 mm 0.00 in0.0 mm 0.04 in1.0 mm
09:25 AM 65.3°F18.5°C 59.3°F15.2°C 81% 2.0 mph SW3.2 kmh SW 8.0 mph12.9 kmh 29.46 in997.6 mb 0.00 in0.0 mm 0.00 in0.0 mm 0.04 in1.0 mm
09:30 AM 65.5°F18.6°C 59.2°F15.1°C 80% 2.3 mph SW3.7 kmh SW 14.0 mph22.5 kmh 29.46 in997.6 mb 0.00 in0.0 mm 0.00 in0.0 mm 0.04 in1.0 mm
09:35 AM 65.6°F18.7°C 59.3°F15.2°C 80% 3.4 mph SSW5.5 kmh SSW 15.0 mph24.1 kmh 29.46 in997.6 mb 0.00 in0.0 mm 0.00 in0.0 mm 0.04 in1.0 mm
09:40 AM 65.7°F18.7°C 59.4°F15.2°C 80% 5.2 mph SSW8.4 kmh SSW 18.0 mph29.0 kmh 29.46 in997.6 mb 0.00 in0.0 mm 0.00 in0.0 mm 0.04 in1.0 mm
09:45 AM 65.7°F18.7°C 59.4°F15.2°C 80% 6.5 mph SSW10.5 kmh SSW 18.0 mph29.0 kmh 29.46 in997.6 mb 0.00 in0.0 mm 0.00 in0.0 mm 0.04 in1.0 mm
09:50 AM 65.6°F18.7°C 59.6°F15.3°C 81% 6.9 mph SW11.1 kmh SW 13.0 mph20.9 kmh 29.47 in998.0 mb 0.00 in0.0 mm 0.00 in0.0 mm 0.04 in1.0 mm
09:55 AM 65.4°F18.6°C 59.8°F15.4°C 82% 6.5 mph SW10.5 kmh SW 13.0 mph20.9 kmh 29.48 in998.3 mb 0.02 in0.5 mm 0.24 in6.1 mm 0.06 in1.5 mm
10:00 AM 63.9°F17.7°C 58.6°F14.8°C 83% 6.6 mph WSW10.6 kmh WSW 13.0 mph20.9 kmh 29.47 in998.0 mb 0.05 in1.3 mm 0.03 in0.8 mm 0.09 in2.3 mm
10:05 AM 62.0°F16.7°C 57.4°F14.1°C 85% 6.5 mph WSW10.5 kmh WSW 14.0 mph22.5 kmh 29.47 in998.0 mb 0.09 in2.3 mm 0.48 in12.2 mm 0.13 in3.3 mm
10:10 AM 60.8°F16.0°C 56.9°F13.8°C 87% 5.3 mph WSW8.5 kmh WSW 14.0 mph22.5 kmh 29.48 in998.3 mb 0.12 in3.0 mm 0.36 in9.1 mm 0.16 in4.1 mm
10:15 AM 60.3°F15.7°C 57.0°F13.9°C 89% 4.0 mph WSW6.4 kmh WSW 9.0 mph14.5 kmh 29.48 in998.3 mb 0.13 in3.3 mm 0.12 in3.0 mm 0.17 in4.3 mm
10:20 AM 60.1°F15.6°C 56.8°F13.8°C 89% 2.7 mph WSW4.3 kmh WSW 6.0 mph9.7 kmh 29.49 in998.6 mb 0.13 in3.3 mm 0.00 in0.0 mm 0.17 in4.3 mm
10:25 AM 59.9°F15.5°C 56.6°F13.7°C 89% 1.5 mph NE2.4 kmh NE 6.0 mph9.7 kmh 29.47 in998.0 mb 0.13 in3.3 mm 0.00 in0.0 mm 0.17 in4.3 mm
10:30 AM 59.8°F15.4°C 56.9°F13.8°C 90% 1.3 mph NE2.1 kmh NE 6.0 mph9.7 kmh 29.48 in998.3 mb 0.13 in3.3 mm 0.00 in0.0 mm 0.17 in4.3 mm
10:35 AM 59.9°F15.5°C 57.0°F13.9°C 90% 1.8 mph NE2.9 kmh NE 5.0 mph8.0 kmh 29.48 in998.3 mb 0.13 in3.3 mm 0.00 in0.0 mm 0.17 in4.3 mm
10:40 AM 60.1°F15.6°C 57.2°F14.0°C 90% 1.5 mph NE2.4 kmh NE 3.0 mph4.8 kmh 29.48 in998.3 mb 0.13 in3.3 mm 0.00 in0.0 mm 0.17 in4.3 mm
10:45 AM 60.2°F15.7°C 57.3°F14.1°C 90% 1.0 mph N1.6 kmh N 4.0 mph6.4 kmh 29.48 in998.3 mb 0.13 in3.3 mm 0.00 in0.0 mm 0.17 in4.3 mm
10:50 AM 60.4°F15.8°C 57.5°F14.2°C 90% 0.9 mph WSW1.4 kmh WSW 5.0 mph8.0 kmh 29.48 in998.3 mb 0.13 in3.3 mm 0.00 in0.0 mm 0.17 in4.3 mm
10:55 AM 60.6°F15.9°C 57.7°F14.3°C 90% 0.9 mph WSW1.4 kmh WSW 5.0 mph8.0 kmh 29.48 in998.3 mb 0.10 in2.5 mm 0.00 in0.0 mm 0.17 in4.3 mm
11:00 AM 60.8°F16.0°C 57.5°F14.2°C 89% 0.9 mph WSW1.4 kmh WSW 5.0 mph8.0 kmh 29.49 in998.6 mb 0.08 in2.0 mm 0.00 in0.0 mm 0.17 in4.3 mm
11:05 AM 61.0°F16.1°C 57.7°F14.3°C 89% 0.6 mph W1.0 kmh W 3.0 mph4.8 kmh 29.48 in998.3 mb 0.03 in0.8 mm 0.00 in0.0 mm 0.17 in4.3 mm
11:10 AM 61.1°F16.2°C 57.8°F14.3°C 89% 0.2 mph W0.3 kmh W 2.0 mph3.2 kmh 29.48 in998.3 mb 0.01 in0.3 mm 0.00 in0.0 mm 0.17 in4.3 mm
11:15 AM 61.2°F16.2°C 57.6°F14.2°C 88% Calm Calm 3.0 mph4.8 kmh 29.48 in998.3 mb 0.00 in0.0 mm 0.00 in0.0 mm 0.17 in4.3 mm
11:20 AM 61.2°F16.2°C 57.3°F14.1°C 87% Calm Calm 4.0 mph6.4 kmh 29.48 in998.3 mb 0.00 in0.0 mm 0.00 in0.0 mm 0.17 in4.3 mm
11:25 AM 61.4°F16.3°C 57.2°F14.0°C 86% 0.3 mph SW0.5 kmh SW 7.0 mph11.3 kmh 29.48 in998.3 mb 0.00 in0.0 mm 0.00 in0.0 mm 0.17 in4.3 mm
11:30 AM 61.7°F16.5°C 57.1°F13.9°C 85% 1.1 mph SW1.8 kmh SW 7.0 mph11.3 kmh 29.48 in998.3 mb 0.00 in0.0 mm 0.00 in0.0 mm 0.17 in4.3 mm
11:35 AM 61.8°F16.6°C 57.2°F14.0°C 85% 1.9 mph SW3.1 kmh SW 5.0 mph8.0 kmh 29.48 in998.3 mb 0.00 in0.0 mm 0.00 in0.0 mm 0.17 in4.3 mm
11:40 AM 61.9°F16.6°C 57.0°F13.9°C 84% 1.7 mph SW2.7 kmh SW 4.0 mph6.4 kmh 29.47 in998.0 mb 0.00 in0.0 mm 0.00 in0.0 mm 0.17 in4.3 mm
11:45 AM 62.0°F16.7°C 57.4°F14.1°C 85% 0.7 mph SW1.1 kmh SW 5.0 mph8.0 kmh 29.47 in998.0 mb 0.00 in0.0 mm 0.00 in0.0 mm 0.17 in4.3 mm
11:50 AM 62.0°F16.7°C 57.4°F14.1°C 85% 0.8 mph SW1.3 kmh SW 5.0 mph8.0 kmh 29.47 in998.0 mb 0.00 in0.0 mm 0.00 in0.0 mm 0.17 in4.3 mm
11:55 AM 62.0°F16.7°C 57.4°F14.1°C 85% 1.7 mph SW2.7 kmh SW 5.0 mph8.0 kmh 29.46 in997.6 mb 0.00 in0.0 mm 0.00 in0.0 mm 0.17 in4.3 mm
12:00 PM 62.0°F16.7°C 57.8°F14.3°C 86% 2.0 mph SW3.2 kmh SW 5.0 mph8.0 kmh 29.46 in997.6 mb 0.00 in0.0 mm 0.00 in0.0 mm 0.17 in4.3 mm
12:05 PM 62.0°F16.7°C 57.8°F14.3°C 86% 2.0 mph SW3.2 kmh SW 6.0 mph9.7 kmh 29.47 in998.0 mb 0.00 in0.0 mm 0.00 in0.0 mm 0.17 in4.3 mm
12:10 PM 62.0°F16.7°C 57.8°F14.3°C 86% 2.1 mph SSW3.4 kmh SSW 6.0 mph9.7 kmh 29.46 in997.6 mb 0.00 in0.0 mm 0.00 in0.0 mm 0.17 in4.3 mm
12:15 PM 62.0°F16.7°C 58.1°F14.5°C 87% 2.6 mph SW4.2 kmh SW 6.0 mph9.7 kmh 29.46 in997.6 mb 0.00 in0.0 mm 0.00 in0.0 mm 0.17 in4.3 mm
12:20 PM 61.9°F16.6°C 58.0°F14.4°C 87% 3.0 mph SW4.8 kmh SW 4.0 mph6.4 kmh 29.46 in997.6 mb 0.00 in0.0 mm 0.00 in0.0 mm 0.17 in4.3 mm
12:25 PM 62.0°F16.7°C 58.1°F14.5°C 87% 2.3 mph WSW3.7 kmh WSW 4.0 mph6.4 kmh 29.46 in997.6 mb 0.00 in0.0 mm 0.00 in0.0 mm 0.17 in4.3 mm
12:30 PM 61.8°F16.6°C 57.9°F14.4°C 87% 1.5 mph SW2.4 kmh SW 6.0 mph9.7 kmh 29.46 in997.6 mb 0.00 in0.0 mm 0.00 in0.0 mm 0.17 in4.3 mm
12:35 PM 61.8°F16.6°C 58.2°F14.6°C 88% 1.7 mph SW2.7 kmh SW 6.0 mph9.7 kmh 29.46 in997.6 mb 0.00 in0.0 mm 0.00 in0.0 mm 0.17 in4.3 mm
12:40 PM 61.9°F16.6°C 58.3°F14.6°C 88% 1.9 mph SW3.1 kmh SW 4.0 mph6.4 kmh 29.46 in997.6 mb 0.00 in0.0 mm 0.00 in0.0 mm 0.17 in4.3 mm
12:45 PM 61.9°F16.6°C 58.6°F14.8°C 89% 1.4 mph SW2.3 kmh SW 4.0 mph6.4 kmh 29.46 in997.6 mb 0.00 in0.0 mm 0.00 in0.0 mm 0.17 in4.3 mm
12:50 PM 61.9°F16.6°C 58.6°F14.8°C 89% 0.6 mph WSW1.0 kmh WSW 1.0 mph1.6 kmh 29.45 in997.3 mb 0.00 in0.0 mm 0.00 in0.0 mm 0.17 in4.3 mm
12:55 PM 61.9°F16.6°C 58.6°F14.8°C 89% 0.1 mph 0.2 kmh -- 29.45 in997.3 mb 0.00 in0.0 mm 0.00 in0.0 mm 0.17 in4.3 mm
01:00 PM 61.8°F16.6°C 58.5°F14.7°C 89% Calm Calm -- 29.45 in997.3 mb 0.00 in0.0 mm 0.00 in0.0 mm 0.17 in4.3 mm
01:05 PM 61.6°F16.4°C 58.3°F14.6°C 89% Calm Calm 4.0 mph6.4 kmh 29.45 in997.3 mb 0.00 in0.0 mm 0.00 in0.0 mm 0.17 in4.3 mm
01:10 PM 61.6°F16.4°C 58.3°F14.6°C 89% 0.2 mph SW0.3 kmh SW 6.0 mph9.7 kmh 29.45 in997.3 mb 0.00 in0.0 mm 0.00 in0.0 mm 0.17 in4.3 mm
01:15 PM 61.6°F16.4°C 58.3°F14.6°C 89% 0.7 mph SW1.1 kmh SW 6.0 mph9.7 kmh 29.44 in997.0 mb 0.00 in0.0 mm 0.00 in0.0 mm 0.17 in4.3 mm
01:20 PM 61.6°F16.4°C 58.3°F14.6°C 89% 1.2 mph SW1.9 kmh SW 9.0 mph14.5 kmh 29.45 in997.3 mb 0.00 in0.0 mm 0.00 in0.0 mm 0.17 in4.3 mm
01:25 PM 61.7°F16.5°C 58.4°F14.7°C 89% 1.7 mph SW2.7 kmh SW 9.0 mph14.5 kmh 29.45 in997.3 mb 0.00 in0.0 mm 0.00 in0.0 mm 0.17 in4.3 mm
01:30 PM 61.7°F16.5°C 58.4°F14.7°C 89% 1.9 mph SW3.1 kmh SW 4.0 mph6.4 kmh 29.45 in997.3 mb 0.00 in0.0 mm 0.00 in0.0 mm 0.17 in4.3 mm
01:35 PM 61.8°F16.6°C 58.5°F14.7°C 89% 1.7 mph SW2.7 kmh SW 6.0 mph9.7 kmh 29.45 in997.3 mb 0.01 in0.3 mm 0.12 in3.0 mm 0.17 in4.3 mm
01:40 PM 61.8°F16.6°C 57.9°F14.4°C 87% 2.2 mph SW3.5 kmh SW 10.0 mph16.1 kmh 29.45 in997.3 mb 0.01 in0.3 mm 0.00 in0.0 mm 0.17 in4.3 mm
01:45 PM 61.8°F16.6°C 57.2°F14.0°C 85% 4.1 mph WSW6.6 kmh WSW 17.0 mph27.4 kmh 29.45 in997.3 mb 0.01 in0.3 mm 0.00 in0.0 mm 0.17 in4.3 mm
01:50 PM 61.6°F16.4°C 56.7°F13.7°C 84% 6.1 mph WSW9.8 kmh WSW 17.0 mph27.4 kmh 29.45 in997.3 mb 0.02 in0.5 mm 0.12 in3.0 mm 0.18 in4.6 mm
01:55 PM 61.3°F16.3°C 56.4°F13.6°C 84% 7.0 mph WSW11.3 kmh WSW 11.0 mph17.7 kmh 29.46 in997.6 mb 0.02 in0.5 mm 0.00 in0.0 mm 0.18 in4.6 mm
02:00 PM 61.1°F16.2°C 56.6°F13.7°C 85% 6.3 mph WSW10.1 kmh WSW 11.0 mph17.7 kmh 29.46 in997.6 mb 0.02 in0.5 mm 0.00 in0.0 mm 0.19 in4.8 mm
02:05 PM 60.9°F16.1°C 56.7°F13.7°C 86% 4.5 mph WSW7.2 kmh WSW 7.0 mph11.3 kmh 29.46 in997.6 mb 0.03 in0.8 mm 0.12 in3.0 mm 0.20 in5.1 mm
02:10 PM 60.7°F15.9°C 56.8°F13.8°C 87% 2.9 mph WSW4.7 kmh WSW 6.0 mph9.7 kmh 29.46 in997.6 mb 0.03 in0.8 mm 0.00 in0.0 mm 0.20 in5.1 mm
02:15 PM 60.6°F15.9°C 56.7°F13.7°C 87% 2.2 mph WSW3.5 kmh WSW 7.0 mph11.3 kmh 29.45 in997.3 mb 0.03 in0.8 mm 0.00 in0.0 mm 0.20 in5.1 mm
02:20 PM 60.5°F15.8°C 56.6°F13.7°C 87% 1.8 mph WSW2.9 kmh WSW 9.0 mph14.5 kmh 29.45 in997.3 mb 0.03 in0.8 mm 0.00 in0.0 mm 0.20 in5.1 mm
02:25 PM 60.3°F15.7°C 56.4°F13.6°C 87% 1.8 mph WSW2.9 kmh WSW 9.0 mph14.5 kmh 29.45 in997.3 mb 0.03 in0.8 mm 0.00 in0.0 mm 0.20 in5.1 mm
02:30 PM 60.2°F15.7°C 56.6°F13.7°C 88% 2.5 mph WSW4.0 kmh WSW 8.0 mph12.9 kmh 29.46 in997.6 mb 0.04 in1.0 mm 0.12 in3.0 mm 0.20 in5.1 mm
02:35 PM 60.2°F15.7°C 56.9°F13.8°C 89% 2.8 mph WSW4.5 kmh WSW 8.0 mph12.9 kmh 29.46 in997.6 mb 0.03 in0.8 mm 0.00 in0.0 mm 0.20 in5.1 mm
02:40 PM 60.1°F15.6°C 56.8°F13.8°C 89% 1.8 mph SW2.9 kmh SW 4.0 mph6.4 kmh 29.46 in997.6 mb 0.03 in0.8 mm 0.00 in0.0 mm 0.20 in5.1 mm
02:45 PM 60.2°F15.7°C 56.9°F13.8°C 89% 1.0 mph SW1.6 kmh SW 3.0 mph4.8 kmh 29.46 in997.6 mb 0.04 in1.0 mm 0.12 in3.0 mm 0.21 in5.3 mm
02:50 PM 60.2°F15.7°C 57.3°F14.1°C 90% 0.9 mph S1.4 kmh S 4.0 mph6.4 kmh 29.46 in997.6 mb 0.03 in0.8 mm 0.00 in0.0 mm 0.21 in5.3 mm
02:55 PM 60.2°F15.7°C 57.3°F14.1°C 90% 0.7 mph SSW1.1 kmh SSW 4.0 mph6.4 kmh 29.47 in998.0 mb 0.03 in0.8 mm 0.00 in0.0 mm 0.21 in5.3 mm
03:00 PM 60.2°F15.7°C 57.3°F14.1°C 90% 0.7 mph SW1.1 kmh SW 3.0 mph4.8 kmh 29.47 in998.0 mb 0.02 in0.5 mm 0.00 in0.0 mm 0.21 in5.3 mm
03:05 PM 60.2°F15.7°C 57.3°F14.1°C 90% 0.4 mph WSW0.6 kmh WSW 5.0 mph8.0 kmh 29.47 in998.0 mb 0.02 in0.5 mm 0.00 in0.0 mm 0.21 in5.3 mm
03:10 PM 60.1°F15.6°C 57.2°F14.0°C 90% 0.5 mph SW0.8 kmh SW 6.0 mph9.7 kmh 29.47 in998.0 mb 0.02 in0.5 mm 0.00 in0.0 mm 0.21 in5.3 mm
03:15 PM 60.0°F15.6°C 57.1°F13.9°C 90% 1.6 mph SW2.6 kmh SW 6.0 mph9.7 kmh 29.47 in998.0 mb 0.02 in0.5 mm 0.00 in0.0 mm 0.21 in5.3 mm
03:20 PM 60.0°F15.6°C 57.1°F13.9°C 90% 2.1 mph SW3.4 kmh SW 4.0 mph6.4 kmh 29.47 in998.0 mb 0.02 in0.5 mm 0.00 in0.0 mm 0.22 in5.6 mm
03:25 PM 59.7°F15.4°C 56.8°F13.8°C 90% 2.2 mph SW3.5 kmh SW 6.0 mph9.7 kmh 29.47 in998.0 mb 0.02 in0.5 mm 0.00 in0.0 mm 0.22 in5.6 mm
03:30 PM 59.6°F15.3°C 56.7°F13.7°C 90% 2.7 mph SW4.3 kmh SW 6.0 mph9.7 kmh 29.48 in998.3 mb 0.02 in0.5 mm 0.00 in0.0 mm 0.22 in5.6 mm
03:35 PM 59.5°F15.3°C 56.6°F13.7°C 90% 3.4 mph SW5.5 kmh SW 8.0 mph12.9 kmh 29.48 in998.3 mb 0.02 in0.5 mm 0.00 in0.0 mm 0.23 in5.8 mm
03:40 PM 59.3°F15.2°C 56.4°F13.6°C 90% 3.7 mph SW6.0 kmh SW 8.0 mph12.9 kmh 29.48 in998.3 mb 0.03 in0.8 mm 0.12 in3.0 mm 0.24 in6.1 mm
03:45 PM 59.3°F15.2°C 56.4°F13.6°C 90% 3.3 mph SW5.3 kmh SW 6.0 mph9.7 kmh 29.47 in998.0 mb 0.03 in0.8 mm 0.00 in0.0 mm 0.24 in6.1 mm
03:50 PM 59.2°F15.1°C 56.6°F13.7°C 91% 2.6 mph SSW4.2 kmh SSW 6.0 mph9.7 kmh 29.47 in998.0 mb 0.03 in0.8 mm 0.00 in0.0 mm 0.24 in6.1 mm
03:55 PM 59.2°F15.1°C 56.6°F13.7°C 91% 2.1 mph SSW3.4 kmh SSW 6.0 mph9.7 kmh 29.47 in998.0 mb 0.03 in0.8 mm 0.00 in0.0 mm 0.24 in6.1 mm
04:00 PM 59.1°F15.1°C 56.5°F13.6°C 91% 1.8 mph SW2.9 kmh SW 4.0 mph6.4 kmh 29.47 in998.0 mb 0.03 in0.8 mm 0.00 in0.0 mm 0.24 in6.1 mm
04:05 PM 59.3°F15.2°C 56.7°F13.7°C 91% 1.3 mph SW2.1 kmh SW 5.0 mph8.0 kmh 29.47 in998.0 mb 0.03 in0.8 mm 0.00 in0.0 mm 0.24 in6.1 mm
04:10 PM 59.7°F15.4°C 57.4°F14.1°C 92% 1.0 mph SW1.6 kmh SW 5.0 mph8.0 kmh 29.47 in998.0 mb 0.03 in0.8 mm 0.00 in0.0 mm 0.24 in6.1 mm
04:15 PM 60.2°F15.7°C 57.9°F14.4°C 92% 0.6 mph 1.0 kmh -- 29.47 in998.0 mb 0.03 in0.8 mm 0.00 in0.0 mm 0.24 in6.1 mm
04:20 PM 60.6°F15.9°C 58.0°F14.4°C 91% 0.1 mph SW0.2 kmh SW 4.0 mph6.4 kmh 29.47 in998.0 mb 0.02 in0.5 mm 0.00 in0.0 mm 0.24 in6.1 mm
04:25 PM 60.9°F16.1°C 58.3°F14.6°C 91% Calm Calm 5.0 mph8.0 kmh 29.47 in998.0 mb 0.02 in0.5 mm 0.00 in0.0 mm 0.24 in6.1 mm
04:30 PM 60.7°F15.9°C 57.7°F14.3°C 90% 0.4 mph SW0.6 kmh SW 5.0 mph8.0 kmh 29.47 in998.0 mb 0.02 in0.5 mm 0.00 in0.0 mm 0.24 in6.1 mm
04:35 PM 60.4°F15.8°C 57.5°F14.2°C 90% 0.9 mph SW1.4 kmh SW 6.0 mph9.7 kmh 29.46 in997.6 mb 0.02 in0.5 mm 0.00 in0.0 mm 0.24 in6.1 mm
04:40 PM 60.0°F15.6°C 57.1°F13.9°C 90% 0.8 mph W1.3 kmh W 6.0 mph9.7 kmh 29.47 in998.0 mb 0.01 in0.3 mm 0.00 in0.0 mm 0.24 in6.1 mm
04:45 PM 59.7°F15.4°C 56.8°F13.8°C 90% 0.3 mph NE0.5 kmh NE 5.0 mph8.0 kmh 29.47 in998.0 mb 0.00 in0.0 mm 0.00 in0.0 mm 0.24 in6.1 mm
04:50 PM 59.5°F15.3°C 56.6°F13.7°C 90% 0.5 mph SSW0.8 kmh SSW 5.0 mph8.0 kmh 29.47 in998.0 mb 0.00 in0.0 mm 0.00 in0.0 mm 0.24 in6.1 mm
04:55 PM 59.4°F15.2°C 56.5°F13.6°C 90% 1.3 mph SW2.1 kmh SW 6.0 mph9.7 kmh 29.47 in998.0 mb 0.00 in0.0 mm 0.00 in0.0 mm 0.24 in6.1 mm
05:00 PM 59.4°F15.2°C 56.8°F13.8°C 91% 1.8 mph SW2.9 kmh SW 6.0 mph9.7 kmh 29.46 in997.6 mb 0.00 in0.0 mm 0.00 in0.0 mm 0.24 in6.1 mm
05:05 PM 59.3°F15.2°C 56.7°F13.7°C 91% 1.5 mph SW2.4 kmh SW 5.0 mph8.0 kmh 29.47 in998.0 mb 0.00 in0.0 mm 0.00 in0.0 mm 0.24 in6.1 mm
05:10 PM 59.2°F15.1°C 56.6°F13.7°C 91% 1.0 mph SW1.6 kmh SW 5.0 mph8.0 kmh 29.47 in998.0 mb 0.00 in0.0 mm 0.00 in0.0 mm 0.24 in6.1 mm
05:15 PM 59.1°F15.1°C 56.5°F13.6°C 91% 1.5 mph SW2.4 kmh SW 8.0 mph12.9 kmh 29.47 in998.0 mb 0.00 in0.0 mm 0.00 in0.0 mm 0.24 in6.1 mm
05:20 PM 59.1°F15.1°C 56.5°F13.6°C 91% 2.5 mph WSW4.0 kmh WSW 8.0 mph12.9 kmh 29.47 in998.0 mb 0.00 in0.0 mm 0.00 in0.0 mm 0.24 in6.1 mm
05:25 PM 59.0°F15.0°C 56.4°F13.6°C 91% 3.0 mph WSW4.8 kmh WSW 6.0 mph9.7 kmh 29.47 in998.0 mb 0.00 in0.0 mm 0.00 in0.0 mm 0.24 in6.1 mm
05:30 PM 58.9°F14.9°C 56.3°F13.5°C 91% 2.6 mph WSW4.2 kmh WSW 6.0 mph9.7 kmh 29.48 in998.3 mb 0.00 in0.0 mm 0.00 in0.0 mm 0.24 in6.1 mm
05:35 PM 58.8°F14.9°C 56.2°F13.4°C 91% 2.0 mph SW3.2 kmh SW 6.0 mph9.7 kmh 29.48 in998.3 mb 0.00 in0.0 mm 0.00 in0.0 mm 0.24 in6.1 mm
05:40 PM 58.8°F14.9°C 56.2°F13.4°C 91% 1.6 mph SW2.6 kmh SW 6.0 mph9.7 kmh 29.48 in998.3 mb 0.00 in0.0 mm 0.00 in0.0 mm 0.24 in6.1 mm
05:45 PM 58.8°F14.9°C 56.2°F13.4°C 91% 1.2 mph SW1.9 kmh SW 5.0 mph8.0 kmh 29.49 in998.6 mb 0.00 in0.0 mm 0.00 in0.0 mm 0.24 in6.1 mm
05:50 PM 58.7°F14.8°C 56.1°F13.4°C 91% 1.5 mph SSW2.4 kmh SSW 5.0 mph8.0 kmh 29.49 in998.6 mb 0.00 in0.0 mm 0.00 in0.0 mm 0.24 in6.1 mm
05:55 PM 58.8°F14.9°C 56.2°F13.4°C 91% 2.0 mph SSW3.2 kmh SSW 5.0 mph8.0 kmh 29.48 in998.3 mb 0.00 in0.0 mm 0.00 in0.0 mm 0.24 in6.1 mm
06:00 PM 58.8°F14.9°C 56.2°F13.4°C 91% 1.6 mph SSW2.6 kmh SSW 3.0 mph4.8 kmh 29.48 in998.3 mb 0.00 in0.0 mm 0.00 in0.0 mm 0.24 in6.1 mm
06:05 PM 58.8°F14.9°C 56.2°F13.4°C 91% 0.6 mph WSW1.0 kmh WSW 1.0 mph1.6 kmh 29.48 in998.3 mb 0.00 in0.0 mm 0.00 in0.0 mm 0.24 in6.1 mm
06:10 PM 58.8°F14.9°C 56.2°F13.4°C 91% Calm Calm 1.0 mph1.6 kmh 29.48 in998.3 mb 0.00 in0.0 mm 0.00 in0.0 mm 0.24 in6.1 mm
06:15 PM 58.8°F14.9°C 56.2°F13.4°C 91% Calm Calm 2.0 mph3.2 kmh 29.49 in998.6 mb 0.00 in0.0 mm 0.00 in0.0 mm 0.24 in6.1 mm
06:20 PM 58.7°F14.8°C 55.8°F13.2°C 90% Calm Calm 2.0 mph3.2 kmh 29.49 in998.6 mb 0.00 in0.0 mm 0.00 in0.0 mm 0.24 in6.1 mm
06:25 PM 58.6°F14.8°C 55.7°F13.2°C 90% Calm Calm -- 29.49 in998.6 mb 0.00 in0.0 mm 0.00 in0.0 mm 0.24 in6.1 mm
06:30 PM 58.6°F14.8°C 55.7°F13.2°C 90% Calm Calm -- 29.49 in998.6 mb 0.00 in0.0 mm 0.00 in0.0 mm 0.24 in6.1 mm
06:35 PM 58.5°F14.7°C 55.3°F12.9°C 89% Calm Calm -- 29.50 in999.0 mb 0.00 in0.0 mm 0.00 in0.0 mm 0.24 in6.1 mm
06:40 PM 58.4°F14.7°C 55.2°F12.9°C 89% Calm Calm -- 29.50 in999.0 mb 0.00 in0.0 mm 0.00 in0.0 mm 0.24 in6.1 mm
06:45 PM 58.4°F14.7°C 54.9°F12.7°C 88% Calm Calm -- 29.50 in999.0 mb 0.00 in0.0 mm 0.00 in0.0 mm 0.24 in6.1 mm
06:50 PM 58.4°F14.7°C 54.9°F12.7°C 88% Calm Calm -- 29.49 in998.6 mb 0.00 in0.0 mm 0.00 in0.0 mm 0.24 in6.1 mm
06:55 PM 58.4°F14.7°C 54.9°F12.7°C 88% Calm Calm -- 29.49 in998.6 mb 0.00 in0.0 mm 0.00 in0.0 mm 0.24 in6.1 mm
07:00 PM 58.3°F14.6°C 54.8°F12.7°C 88% Calm Calm 5.0 mph8.0 kmh 29.49 in998.6 mb 0.00 in0.0 mm 0.00 in0.0 mm 0.24 in6.1 mm
07:05 PM 58.3°F14.6°C 54.8°F12.7°C 88% 0.5 mph SW0.8 kmh SW 5.0 mph8.0 kmh 29.49 in998.6 mb 0.00 in0.0 mm 0.00 in0.0 mm 0.24 in6.1 mm
07:10 PM 58.3°F14.6°C 54.4°F12.4°C 87% 1.5 mph SW2.4 kmh SW 6.0 mph9.7 kmh 29.50 in999.0 mb 0.00 in0.0 mm 0.00 in0.0 mm 0.24 in6.1 mm
07:15 PM 58.3°F14.6°C 54.4°F12.4°C 87% 2.0 mph SSW3.2 kmh SSW 6.0 mph9.7 kmh 29.50 in999.0 mb 0.00 in0.0 mm 0.00 in0.0 mm 0.24 in6.1 mm
07:20 PM 58.3°F14.6°C 54.4°F12.4°C 87% 2.0 mph SSW3.2 kmh SSW 6.0 mph9.7 kmh 29.50 in999.0 mb 0.00 in0.0 mm 0.00 in0.0 mm 0.24 in6.1 mm
07:25 PM 58.3°F14.6°C 54.4°F12.4°C 87% 1.6 mph SW2.6 kmh SW 4.0 mph6.4 kmh 29.50 in999.0 mb 0.00 in0.0 mm 0.00 in0.0 mm 0.24 in6.1 mm
07:30 PM 58.2°F14.6°C 54.0°F12.2°C 86% 0.6 mph WSW1.0 kmh WSW 3.0 mph4.8 kmh 29.50 in999.0 mb 0.00 in0.0 mm 0.00 in0.0 mm 0.24 in6.1 mm
07:35 PM 58.0°F14.4°C 53.8°F12.1°C 86% Calm Calm 3.0 mph4.8 kmh 29.50 in999.0 mb 0.00 in0.0 mm 0.00 in0.0 mm 0.24 in6.1 mm
07:40 PM 58.0°F14.4°C 53.8°F12.1°C 86% Calm Calm -- 29.51 in999.3 mb 0.00 in0.0 mm 0.00 in0.0 mm 0.24 in6.1 mm
07:45 PM 57.9°F14.4°C 53.7°F12.1°C 86% Calm Calm -- 29.51 in999.3 mb 0.00 in0.0 mm 0.00 in0.0 mm 0.24 in6.1 mm
07:50 PM 57.8°F14.3°C 53.3°F11.8°C 85% Calm Calm -- 29.51 in999.3 mb 0.00 in0.0 mm 0.00 in0.0 mm 0.24 in6.1 mm
07:55 PM 57.8°F14.3°C 53.3°F11.8°C 85% Calm Calm -- 29.52 in999.7 mb 0.00 in0.0 mm 0.00 in0.0 mm 0.24 in6.1 mm
08:00 PM 57.8°F14.3°C 53.3°F11.8°C 85% Calm Calm -- 29.52 in999.7 mb 0.00 in0.0 mm 0.00 in0.0 mm 0.24 in6.1 mm
08:05 PM 57.7°F14.3°C 53.2°F11.8°C 85% Calm Calm -- 29.52 in999.7 mb 0.00 in0.0 mm 0.00 in0.0 mm 0.24 in6.1 mm
08:10 PM 57.7°F14.3°C 53.2°F11.8°C 85% Calm Calm -- 29.52 in999.7 mb 0.00 in0.0 mm 0.00 in0.0 mm 0.24 in6.1 mm
08:15 PM 57.7°F14.3°C 52.9°F11.6°C 84% Calm Calm -- 29.52 in999.7 mb 0.00 in0.0 mm 0.00 in0.0 mm 0.24 in6.1 mm
08:20 PM 58.0°F14.4°C 52.9°F11.6°C 83% Calm Calm -- 29.52 in999.7 mb 0.00 in0.0 mm 0.00 in0.0 mm 0.24 in6.1 mm
08:25 PM 58.1°F14.5°C 53.0°F11.7°C 83% Calm Calm -- 29.53 in1000.0 mb 0.00 in0.0 mm 0.00 in0.0 mm 0.24 in6.1 mm
08:30 PM 58.1°F14.5°C 52.6°F11.4°C 82% Calm Calm 4.0 mph6.4 kmh 29.53 in1000.0 mb 0.00 in0.0 mm 0.00 in0.0 mm 0.24 in6.1 mm
08:35 PM 58.3°F14.6°C 52.8°F11.6°C 82% 0.4 mph SW0.6 kmh SW 4.0 mph6.4 kmh 29.53 in1000.0 mb 0.00 in0.0 mm 0.00 in0.0 mm 0.24 in6.1 mm
08:40 PM 58.4°F14.7°C 52.9°F11.6°C 82% 0.9 mph SW1.4 kmh SW 6.0 mph9.7 kmh 29.53 in1000.0 mb 0.00 in0.0 mm 0.00 in0.0 mm 0.24 in6.1 mm
08:45 PM 58.3°F14.6°C 52.5°F11.4°C 81% 1.0 mph SW1.6 kmh SW 6.0 mph9.7 kmh 29.53 in1000.0 mb 0.00 in0.0 mm 0.00 in0.0 mm 0.24 in6.1 mm
08:50 PM 58.4°F14.7°C 52.3°F11.3°C 80% 1.0 mph SW1.6 kmh SW 6.0 mph9.7 kmh 29.53 in1000.0 mb 0.00 in0.0 mm 0.00 in0.0 mm 0.24 in6.1 mm
08:55 PM 58.6°F14.8°C 52.1°F11.2°C 79% 1.4 mph SSW2.3 kmh SSW 6.0 mph9.7 kmh 29.53 in1000.0 mb 0.00 in0.0 mm 0.00 in0.0 mm 0.24 in6.1 mm
09:00 PM 58.5°F14.7°C 52.0°F11.1°C 79% 1.6 mph SSW2.6 kmh SSW 6.0 mph9.7 kmh 29.54 in1000.3 mb 0.00 in0.0 mm 0.00 in0.0 mm 0.24 in6.1 mm
09:05 PM 58.4°F14.7°C 51.9°F11.1°C 79% 0.8 mph SW1.3 kmh SW 2.0 mph3.2 kmh 29.54 in1000.3 mb 0.00 in0.0 mm 0.00 in0.0 mm 0.24 in6.1 mm
09:10 PM 58.2°F14.6°C 51.7°F10.9°C 79% 0.1 mph SW0.2 kmh SW 3.0 mph4.8 kmh 29.54 in1000.3 mb 0.00 in0.0 mm 0.00 in0.0 mm 0.24 in6.1 mm
09:15 PM 58.2°F14.6°C 51.7°F10.9°C 79% Calm Calm 3.0 mph4.8 kmh 29.54 in1000.3 mb 0.00 in0.0 mm 0.00 in0.0 mm 0.24 in6.1 mm
09:20 PM 58.0°F14.4°C 51.9°F11.1°C 80% Calm Calm -- 29.55 in1000.7 mb 0.00 in0.0 mm 0.00 in0.0 mm 0.24 in6.1 mm
09:25 PM 57.8°F14.3°C 51.7°F10.9°C 80% Calm Calm -- 29.55 in1000.7 mb 0.00 in0.0 mm 0.00 in0.0 mm 0.24 in6.1 mm
09:30 PM 57.8°F14.3°C 51.7°F10.9°C 80% Calm Calm 4.0 mph6.4 kmh 29.55 in1000.7 mb 0.00 in0.0 mm 0.00 in0.0 mm 0.24 in6.1 mm
09:35 PM 57.8°F14.3°C 51.7°F10.9°C 80% Calm Calm 4.0 mph6.4 kmh 29.55 in1000.7 mb 0.00 in0.0 mm 0.00 in0.0 mm 0.24 in6.1 mm
09:40 PM 57.9°F14.4°C 51.8°F11.0°C 80% Calm Calm 2.0 mph3.2 kmh 29.55 in1000.7 mb 0.00 in0.0 mm 0.00 in0.0 mm 0.24 in6.1 mm
09:45 PM 58.1°F14.5°C 51.3°F10.7°C 78% 0.2 mph WSW0.3 kmh WSW 5.0 mph8.0 kmh 29.55 in1000.7 mb 0.00 in0.0 mm 0.00 in0.0 mm 0.24 in6.1 mm
09:50 PM 58.2°F14.6°C 51.4°F10.8°C 78% 1.0 mph WSW1.6 kmh WSW 7.0 mph11.3 kmh 29.56 in1001.0 mb 0.00 in0.0 mm 0.00 in0.0 mm 0.24 in6.1 mm
09:55 PM 58.3°F14.6°C 51.1°F10.6°C 77% 2.1 mph WSW3.4 kmh WSW 8.0 mph12.9 kmh 29.56 in1001.0 mb 0.00 in0.0 mm 0.00 in0.0 mm 0.24 in6.1 mm
10:00 PM 58.3°F14.6°C 51.1°F10.6°C 77% 3.0 mph WSW4.8 kmh WSW 8.0 mph12.9 kmh 29.56 in1001.0 mb 0.00 in0.0 mm 0.00 in0.0 mm 0.24 in6.1 mm
10:05 PM 58.3°F14.6°C 50.8°F10.4°C 76% 4.0 mph WSW6.4 kmh WSW 10.0 mph16.1 kmh 29.56 in1001.0 mb 0.00 in0.0 mm 0.00 in0.0 mm 0.24 in6.1 mm
10:10 PM 58.4°F14.7°C 50.9°F10.5°C 76% 4.8 mph WSW7.7 kmh WSW 10.0 mph16.1 kmh 29.56 in1001.0 mb 0.00 in0.0 mm 0.00 in0.0 mm 0.24 in6.1 mm
10:15 PM 58.3°F14.6°C 50.8°F10.4°C 76% 5.4 mph WSW8.7 kmh WSW 10.0 mph16.1 kmh 29.56 in1001.0 mb 0.00 in0.0 mm 0.00 in0.0 mm 0.24 in6.1 mm
10:20 PM 58.2°F14.6°C 50.7°F10.4°C 76% 5.9 mph WSW9.5 kmh WSW 10.0 mph16.1 kmh 29.56 in1001.0 mb 0.00 in0.0 mm 0.00 in0.0 mm 0.24 in6.1 mm
10:25 PM 58.2°F14.6°C 50.3°F10.2°C 75% 5.7 mph WSW9.2 kmh WSW 10.0 mph16.1 kmh 29.56 in1001.0 mb 0.00 in0.0 mm 0.00 in0.0 mm 0.24 in6.1 mm
10:30 PM 58.3°F14.6°C 50.4°F10.2°C 75% 5.6 mph SW9.0 kmh SW 12.0 mph19.3 kmh 29.56 in1001.0 mb 0.00 in0.0 mm 0.00 in0.0 mm 0.24 in6.1 mm
10:35 PM 58.2°F14.6°C 50.3°F10.2°C 75% 6.0 mph SW9.7 kmh SW 14.0 mph22.5 kmh 29.56 in1001.0 mb 0.00 in0.0 mm 0.00 in0.0 mm 0.24 in6.1 mm
10:40 PM 58.4°F14.7°C 50.1°F10.1°C 74% 6.7 mph SW10.8 kmh SW 14.0 mph22.5 kmh 29.56 in1001.0 mb 0.00 in0.0 mm 0.00 in0.0 mm 0.24 in6.1 mm
10:45 PM 58.2°F14.6°C 50.0°F10.0°C 74% 7.6 mph SW12.2 kmh SW 14.0 mph22.5 kmh 29.56 in1001.0 mb 0.00 in0.0 mm 0.00 in0.0 mm 0.24 in6.1 mm
10:50 PM 58.2°F14.6°C 50.0°F10.0°C 74% 7.7 mph SW12.4 kmh SW 12.0 mph19.3 kmh 29.56 in1001.0 mb 0.00 in0.0 mm 0.00 in0.0 mm 0.24 in6.1 mm
10:55 PM 58.1°F14.5°C 50.2°F10.1°C 75% 7.2 mph SW11.6 kmh SW 13.0 mph20.9 kmh 29.57 in1001.4 mb 0.00 in0.0 mm 0.00 in0.0 mm 0.24 in6.1 mm
11:00 PM 58.2°F14.6°C 50.3°F10.2°C 75% 7.1 mph SW11.4 kmh SW 13.0 mph20.9 kmh 29.57 in1001.4 mb 0.00 in0.0 mm 0.00 in0.0 mm 0.24 in6.1 mm
11:05 PM 58.2°F14.6°C 50.0°F10.0°C 74% 7.4 mph SW11.9 kmh SW 13.0 mph20.9 kmh 29.57 in1001.4 mb 0.00 in0.0 mm 0.00 in0.0 mm 0.24 in6.1 mm
11:10 PM 58.2°F14.6°C 50.3°F10.2°C 75% 7.3 mph SW11.7 kmh SW 13.0 mph20.9 kmh 29.57 in1001.4 mb 0.00 in0.0 mm 0.00 in0.0 mm 0.24 in6.1 mm
11:15 PM 58.2°F14.6°C 50.3°F10.2°C 75% 7.0 mph SW11.3 kmh SW 13.0 mph20.9 kmh 29.57 in1001.4 mb 0.00 in0.0 mm 0.00 in0.0 mm 0.24 in6.1 mm
11:20 PM 58.1°F14.5°C 50.2°F10.1°C 75% 7.2 mph SW11.6 kmh SW 13.0 mph20.9 kmh 29.58 in1001.7 mb 0.00 in0.0 mm 0.00 in0.0 mm 0.24 in6.1 mm
11:25 PM 58.0°F14.4°C 50.1°F10.1°C 75% 7.2 mph SW11.6 kmh SW 12.0 mph19.3 kmh 29.58 in1001.7 mb 0.00 in0.0 mm 0.00 in0.0 mm 0.24 in6.1 mm
11:30 PM 58.2°F14.6°C 50.3°F10.2°C 75% 6.7 mph SW10.8 kmh SW 14.0 mph22.5 kmh 29.58 in1001.7 mb 0.00 in0.0 mm 0.00 in0.0 mm 0.24 in6.1 mm
11:35 PM 58.5°F14.7°C 50.2°F10.1°C 74% 7.0 mph SW11.3 kmh SW 18.0 mph29.0 kmh 29.59 in1002.0 mb 0.00 in0.0 mm 0.00 in0.0 mm 0.24 in6.1 mm
11:40 PM 58.5°F14.7°C 50.6°F10.3°C 75% 8.3 mph WSW13.4 kmh WSW 18.0 mph29.0 kmh 29.59 in1002.0 mb 0.01 in0.3 mm 0.12 in3.0 mm 0.25 in6.4 mm
11:45 PM 58.4°F14.7°C 50.5°F10.3°C 75% 9.0 mph SW14.5 kmh SW 16.0 mph25.7 kmh 29.59 in1002.0 mb 0.01 in0.3 mm 0.00 in0.0 mm 0.25 in6.4 mm
11:50 PM 58.4°F14.7°C 50.5°F10.3°C 75% 8.9 mph SW14.3 kmh SW 17.0 mph27.4 kmh 29.59 in1002.0 mb 0.01 in0.3 mm 0.00 in0.0 mm 0.25 in6.4 mm
11:55 PM 58.3°F14.6°C 50.4°F10.2°C 75% 9.1 mph WSW14.6 kmh WSW 17.0 mph27.4 kmh 29.59 in1002.0 mb 0.01 in0.3 mm 0.00 in0.0 mm 0.25 in6.4 mm